createdAt,value
2017-12-04T00:00:28.216Z,19.52
2017-12-04T00:02:54.158Z,19.55
2017-12-04T00:05:19.939Z,19.57
2017-12-04T00:07:45.860Z,19.54
2017-12-04T00:10:11.651Z,19.54
2017-12-04T00:12:37.435Z,19.57
2017-12-04T00:15:03.293Z,19.52
2017-12-04T00:17:29.099Z,19.56
2017-12-04T00:19:55.795Z,19.59
2017-12-04T00:22:21.584Z,19.48
2017-12-04T00:24:47.360Z,19.58
2017-12-04T00:27:13.340Z,19.58
2017-12-04T00:29:39.303Z,19.54
2017-12-04T00:32:05.362Z,19.58
2017-12-04T00:34:31.135Z,19.56
2017-12-04T00:36:57.731Z,19.58
2017-12-04T00:39:23.499Z,19.43
2017-12-04T00:41:49.275Z,19.49
2017-12-04T00:44:15.967Z,19.46
2017-12-04T00:46:41.764Z,19.49
2017-12-04T00:49:07.539Z,19.49
2017-12-04T00:51:33.375Z,19.52
2017-12-04T00:53:59.194Z,19.59
2017-12-04T00:56:24.978Z,19.58
2017-12-04T00:58:51.759Z,19.43
2017-12-04T01:01:18.512Z,19.51
2017-12-04T01:03:44.287Z,19.62
2017-12-04T01:06:10.059Z,19.62
2017-12-04T01:08:35.830Z,19.61
2017-12-04T01:11:02.568Z,19.62
2017-12-04T01:13:28.567Z,19.54
2017-12-04T01:15:54.338Z,19.53
2017-12-04T01:18:21.073Z,19.63
2017-12-04T01:20:46.970Z,19.55
2017-12-04T01:23:12.723Z,19.57
2017-12-04T01:25:38.494Z,19.60
2017-12-04T01:28:04.269Z,19.66
2017-12-04T01:30:30.044Z,19.58
2017-12-04T01:32:55.808Z,19.49
2017-12-04T01:35:22.571Z,19.53
2017-12-04T01:37:48.347Z,19.58
2017-12-04T01:40:14.191Z,19.59
2017-12-04T01:42:39.960Z,19.53
2017-12-04T01:45:05.746Z,19.55
2017-12-04T01:47:31.539Z,19.58
2017-12-04T01:49:57.350Z,19.45
2017-12-04T01:52:23.119Z,19.50
2017-12-04T01:54:49.091Z,19.45
2017-12-04T01:57:14.910Z,19.55
2017-12-04T01:59:40.683Z,19.47
2017-12-04T02:02:06.537Z,19.60
2017-12-04T02:04:32.327Z,19.67
2017-12-04T02:06:58.113Z,19.69
2017-12-04T02:09:23.883Z,19.68
2017-12-04T02:11:49.660Z,19.65
2017-12-04T02:14:16.376Z,19.70
2017-12-04T02:16:42.143Z,19.76
2017-12-04T02:19:07.925Z,19.73
2017-12-04T02:21:33.722Z,19.68
2017-12-04T02:23:59.528Z,19.67
2017-12-04T02:26:25.323Z,19.70
2017-12-04T02:28:51.108Z,19.74
2017-12-04T02:31:17.786Z,19.68
2017-12-04T02:33:43.560Z,19.68
2017-12-04T02:36:09.357Z,19.74
2017-12-04T02:38:35.145Z,19.78
2017-12-04T02:41:00.939Z,19.69
2017-12-04T02:43:26.742Z,19.63
2017-12-04T02:45:52.526Z,19.66
2017-12-04T02:48:18.331Z,19.70
2017-12-04T02:50:44.128Z,19.68
2017-12-04T02:53:09.939Z,19.79
2017-12-04T02:55:35.722Z,19.73
2017-12-04T02:58:01.515Z,19.64
2017-12-04T03:00:27.296Z,19.59
2017-12-04T03:02:53.075Z,19.64
2017-12-04T03:05:18.852Z,19.67
2017-12-04T03:07:44.715Z,19.67
2017-12-04T03:10:10.496Z,19.73
2017-12-04T03:12:36.283Z,19.68
2017-12-04T03:15:02.076Z,19.79
2017-12-04T03:17:27.856Z,19.69
2017-12-04T03:19:53.822Z,19.65
2017-12-04T03:22:19.669Z,19.69
2017-12-04T03:24:45.572Z,19.67
2017-12-04T03:27:11.398Z,19.70
2017-12-04T03:29:37.181Z,19.72
2017-12-04T03:32:02.952Z,19.72
2017-12-04T03:34:28.728Z,19.71
2017-12-04T03:36:54.532Z,19.67
2017-12-04T03:39:20.356Z,19.67
2017-12-04T03:41:46.152Z,19.73
2017-12-04T03:44:12.117Z,19.63
2017-12-04T03:46:37.948Z,19.72
2017-12-04T03:49:03.728Z,19.78
2017-12-04T03:51:29.547Z,19.69
2017-12-04T03:53:55.332Z,19.72
2017-12-04T03:56:21.113Z,19.66
2017-12-04T03:58:46.892Z,19.67
2017-12-04T04:01:12.672Z,19.69
2017-12-04T04:03:38.455Z,19.66
2017-12-04T04:06:04.235Z,19.71
2017-12-04T04:08:30.113Z,19.73
2017-12-04T04:10:55.890Z,19.71
2017-12-04T04:13:21.705Z,19.77
2017-12-04T04:15:47.483Z,19.76
2017-12-04T04:18:13.413Z,19.69
2017-12-04T04:20:39.208Z,19.72
2017-12-04T04:23:05.027Z,19.82
2017-12-04T04:25:30.832Z,19.84
2017-12-04T04:27:56.627Z,19.82
2017-12-04T04:30:22.408Z,19.85
2017-12-04T04:32:48.188Z,19.85
2017-12-04T04:35:13.971Z,19.88
2017-12-04T04:37:39.788Z,19.80
2017-12-04T04:40:05.560Z,19.78
2017-12-04T04:42:31.340Z,19.92
2017-12-04T04:44:57.116Z,19.89
2017-12-04T04:47:22.916Z,19.91
2017-12-04T04:49:48.696Z,19.89
2017-12-04T04:52:14.515Z,19.89
2017-12-04T04:54:40.308Z,19.88
2017-12-04T04:57:06.109Z,19.75
2017-12-04T04:59:31.955Z,19.89
2017-12-04T05:01:57.736Z,19.86
2017-12-04T05:04:23.516Z,19.88
2017-12-04T05:06:49.308Z,19.89
2017-12-04T05:09:15.154Z,19.88
2017-12-04T05:11:41.035Z,19.86
2017-12-04T05:14:06.904Z,19.83
2017-12-04T05:16:32.747Z,19.90
2017-12-04T05:18:58.543Z,19.88
2017-12-04T05:21:24.336Z,19.91
2017-12-04T05:23:50.128Z,19.88
2017-12-04T05:26:16.051Z,19.92
2017-12-04T05:28:41.881Z,19.88
2017-12-04T05:31:07.686Z,19.82
2017-12-04T05:33:33.632Z,19.84
2017-12-04T05:35:59.466Z,19.77
2017-12-04T05:38:25.255Z,19.80
2017-12-04T05:40:51.032Z,19.85
2017-12-04T05:43:16.909Z,19.86
2017-12-04T05:45:42.748Z,19.86
2017-12-04T05:48:08.532Z,19.86
2017-12-04T05:50:34.447Z,19.89
2017-12-04T05:53:00.228Z,19.85
2017-12-04T05:55:27.110Z,20.02
2017-12-04T05:57:52.920Z,20.07
2017-12-04T06:00:18.704Z,20.02
2017-12-04T06:02:44.556Z,19.98
2017-12-04T06:05:10.339Z,19.93
2017-12-04T06:07:36.506Z,20.02
2017-12-04T06:10:02.325Z,19.94
2017-12-04T06:12:28.103Z,19.98
2017-12-04T06:14:54.626Z,19.98
2017-12-04T06:17:20.401Z,19.98
2017-12-04T06:19:46.180Z,20.02
2017-12-04T06:22:11.976Z,19.96
2017-12-04T06:24:37.752Z,19.95
2017-12-04T06:27:03.536Z,19.95
2017-12-04T06:29:29.499Z,20.05
2017-12-04T06:31:55.352Z,20.05
2017-12-04T06:34:21.256Z,20.17
2017-12-04T06:36:47.043Z,20.09
2017-12-04T06:39:12.827Z,20.00
2017-12-04T06:41:38.596Z,19.97
2017-12-04T06:44:04.368Z,19.91
2017-12-04T06:46:30.145Z,19.98
2017-12-04T06:48:55.939Z,20.05
2017-12-04T06:51:21.715Z,20.06
2017-12-04T06:53:47.507Z,20.01
2017-12-04T06:56:13.276Z,19.98
2017-12-04T06:58:39.084Z,19.94
2017-12-04T07:01:04.893Z,19.89
2017-12-04T07:03:30.725Z,19.98
2017-12-04T07:05:56.505Z,19.92
2017-12-04T07:08:22.303Z,19.99
2017-12-04T07:10:48.082Z,20.02
2017-12-04T07:13:13.905Z,20.00
2017-12-04T07:15:39.695Z,20.02
2017-12-04T07:18:05.519Z,19.91
2017-12-04T07:20:31.297Z,19.96
2017-12-04T07:22:57.152Z,20.14
2017-12-04T07:25:22.923Z,19.99
2017-12-04T07:27:48.707Z,19.92
2017-12-04T07:30:14.484Z,19.96
2017-12-04T07:32:40.271Z,20.00
2017-12-04T07:35:06.048Z,20.07
2017-12-04T07:37:31.833Z,20.03
2017-12-04T07:39:57.612Z,20.05
2017-12-04T07:42:23.383Z,20.17
2017-12-04T07:44:49.200Z,20.14
2017-12-04T07:47:14.975Z,20.19
2017-12-04T07:49:40.799Z,20.08
2017-12-04T07:52:06.576Z,20.06
2017-12-04T07:54:32.352Z,20.11
2017-12-04T07:56:58.157Z,20.18
2017-12-04T07:59:23.936Z,20.07
2017-12-04T08:01:49.712Z,20.06
2017-12-04T08:04:15.504Z,20.12
2017-12-04T08:06:41.320Z,20.26
2017-12-04T08:09:07.101Z,20.04
2017-12-04T08:11:32.871Z,19.95
2017-12-04T08:13:58.656Z,20.14
2017-12-04T08:16:24.440Z,20.14
2017-12-04T08:18:50.220Z,20.19
2017-12-04T08:21:16.018Z,20.31
2017-12-04T08:23:41.879Z,20.27
2017-12-04T08:26:07.668Z,20.04
2017-12-04T08:28:33.448Z,20.11
2017-12-04T08:30:59.228Z,20.11
2017-12-04T08:33:25.009Z,20.05
2017-12-04T08:35:50.913Z,20.10
2017-12-04T08:38:16.683Z,20.17
2017-12-04T08:40:42.604Z,20.11
2017-12-04T08:43:08.420Z,20.01
2017-12-04T08:45:34.253Z,20.01
2017-12-04T08:48:00.107Z,20.03
2017-12-04T08:50:25.920Z,20.03
2017-12-04T08:52:51.691Z,20.14
2017-12-04T08:55:17.472Z,20.17
2017-12-04T08:57:43.251Z,20.17
2017-12-04T09:00:09.032Z,20.08
2017-12-04T09:02:34.811Z,20.04
2017-12-04T09:05:00.580Z,20.09
2017-12-04T09:07:26.355Z,20.15
2017-12-04T09:09:52.193Z,20.06
2017-12-04T09:12:17.976Z,20.08
2017-12-04T09:14:43.812Z,20.26
2017-12-04T09:17:09.640Z,20.05
2017-12-04T09:19:35.417Z,20.00
2017-12-04T09:22:01.236Z,20.04
2017-12-04T09:24:27.099Z,20.08
2017-12-04T09:26:52.883Z,20.09
2017-12-04T09:29:18.687Z,20.09
2017-12-04T09:31:44.455Z,20.12
2017-12-04T09:34:10.245Z,20.03
2017-12-04T09:36:36.105Z,20.05
2017-12-04T09:39:01.895Z,20.01
2017-12-04T09:41:27.703Z,19.98
2017-12-04T09:43:53.648Z,19.87
2017-12-04T09:46:19.459Z,20.04
2017-12-04T09:48:45.274Z,20.14
2017-12-04T09:51:11.069Z,20.12
2017-12-04T09:53:36.843Z,20.16
2017-12-04T09:56:02.756Z,20.19
2017-12-04T09:58:28.528Z,20.35
2017-12-04T10:00:54.313Z,20.48
2017-12-04T10:03:20.088Z,20.28
2017-12-04T10:05:45.871Z,20.11
2017-12-04T10:08:11.688Z,20.18
2017-12-04T10:10:37.464Z,20.22
2017-12-04T10:13:03.243Z,20.16
2017-12-04T10:15:29.032Z,20.09
2017-12-04T10:17:54.799Z,20.13
2017-12-04T10:20:20.644Z,20.08
2017-12-04T10:22:46.460Z,20.04
2017-12-04T10:25:12.241Z,20.10
2017-12-04T10:27:38.110Z,20.00
2017-12-04T10:30:03.940Z,20.03
2017-12-04T10:32:30.006Z,20.05
2017-12-04T10:34:55.870Z,19.99
2017-12-04T10:37:21.679Z,19.94
2017-12-04T10:39:47.456Z,19.96
2017-12-04T10:42:13.240Z,19.95
2017-12-04T10:44:39.120Z,19.99
2017-12-04T10:47:04.912Z,20.00
2017-12-04T10:49:30.700Z,19.97
2017-12-04T10:51:56.503Z,20.00
2017-12-04T10:54:22.300Z,19.82
2017-12-04T10:56:48.091Z,19.92
2017-12-04T10:59:13.875Z,19.86
2017-12-04T11:01:39.684Z,19.95
2017-12-04T11:04:05.477Z,19.88
2017-12-04T11:06:31.256Z,19.84
2017-12-04T11:08:57.035Z,19.88
2017-12-04T11:11:22.821Z,19.85
2017-12-04T11:13:48.640Z,19.84
2017-12-04T11:16:14.424Z,19.80
2017-12-04T11:18:40.218Z,19.89
2017-12-04T11:21:06.029Z,19.88
2017-12-04T11:23:31.808Z,19.89
2017-12-04T11:25:57.589Z,19.77
2017-12-04T11:28:23.363Z,19.81
2017-12-04T11:30:49.160Z,19.88
2017-12-04T11:33:14.932Z,19.88
2017-12-04T11:35:40.740Z,19.82
2017-12-04T11:38:06.608Z,19.79
2017-12-04T11:40:32.397Z,19.86
2017-12-04T11:42:58.200Z,19.94
2017-12-04T11:45:23.988Z,19.98
2017-12-04T11:47:49.763Z,20.03
2017-12-04T11:50:15.540Z,20.06
2017-12-04T11:52:41.324Z,19.91
2017-12-04T11:55:07.095Z,19.97
2017-12-04T11:57:32.876Z,19.98
2017-12-04T11:59:58.648Z,20.02
2017-12-04T12:02:24.451Z,20.06
2017-12-04T12:04:50.231Z,20.04
2017-12-04T12:07:16.059Z,20.06
2017-12-04T12:09:41.867Z,20.02
2017-12-04T12:12:07.664Z,19.98
2017-12-04T12:14:33.441Z,19.99
2017-12-04T12:16:59.261Z,20.12
2017-12-04T12:19:25.055Z,20.10
2017-12-04T12:21:50.870Z,20.08
2017-12-04T12:24:17.520Z,20.14
2017-12-04T12:26:43.323Z,20.03
2017-12-04T12:29:09.092Z,19.95
2017-12-04T12:31:34.896Z,19.92
2017-12-04T12:34:00.705Z,20.00
2017-12-04T12:36:26.477Z,19.98
2017-12-04T12:38:52.281Z,19.99
2017-12-04T12:41:18.096Z,19.96
2017-12-04T12:43:43.864Z,19.99
2017-12-04T12:46:09.680Z,19.92
2017-12-04T12:48:35.453Z,19.92
2017-12-04T12:51:01.224Z,19.91
2017-12-04T12:53:27.039Z,19.93
2017-12-04T12:55:52.823Z,19.98
2017-12-04T12:58:18.648Z,19.92
2017-12-04T13:00:44.435Z,20.00
2017-12-04T13:03:10.244Z,19.96
2017-12-04T13:05:36.024Z,19.97
2017-12-04T13:08:01.852Z,19.93
2017-12-04T13:10:27.698Z,19.95
2017-12-04T13:12:53.476Z,19.90
2017-12-04T13:15:19.256Z,19.92
2017-12-04T13:17:45.040Z,19.79
2017-12-04T13:20:10.816Z,19.87
2017-12-04T13:22:36.624Z,19.97
2017-12-04T13:25:02.395Z,19.87
2017-12-04T13:27:28.173Z,20.39
2017-12-04T13:29:53.956Z,20.31
2017-12-04T13:32:25.944Z,20.16
2017-12-04T13:34:57.876Z,20.07
2017-12-04T13:37:23.656Z,19.93
2017-12-04T13:39:49.440Z,19.95
2017-12-04T13:42:15.232Z,19.65
2017-12-04T13:44:41.095Z,19.31
2017-12-04T13:47:06.896Z,19.11
2017-12-04T13:49:32.672Z,19.21
2017-12-04T13:51:58.452Z,19.31
2017-12-04T13:54:24.228Z,19.52
2017-12-04T13:56:50.016Z,19.73
2017-12-04T13:59:15.803Z,19.76
2017-12-04T14:01:41.600Z,19.76
2017-12-04T14:04:07.388Z,19.81
2017-12-04T14:06:33.160Z,19.81
2017-12-04T14:08:58.944Z,19.77
2017-12-04T14:11:24.716Z,19.78
2017-12-04T14:13:50.487Z,19.82
2017-12-04T14:16:16.260Z,19.83
2017-12-04T14:18:42.032Z,19.86
2017-12-04T14:21:07.808Z,19.84
2017-12-04T14:23:33.580Z,19.82
2017-12-04T14:25:59.355Z,19.80
2017-12-04T14:28:25.129Z,19.78
2017-12-04T14:30:50.942Z,19.85
2017-12-04T14:33:16.711Z,19.79
2017-12-04T14:35:42.484Z,19.87
2017-12-04T14:38:08.285Z,19.88
2017-12-04T14:40:34.055Z,19.86
2017-12-04T14:43:00.027Z,19.79
2017-12-04T14:45:25.820Z,19.80
2017-12-04T14:47:51.592Z,19.81
2017-12-04T14:50:17.368Z,19.81
2017-12-04T14:52:43.147Z,19.83
2017-12-04T14:55:08.931Z,19.85
2017-12-04T14:57:34.743Z,19.81
2017-12-04T15:00:00.552Z,19.82
2017-12-04T15:02:26.323Z,19.79
2017-12-04T15:04:52.139Z,19.88
2017-12-04T15:07:17.926Z,19.82
2017-12-04T15:09:43.735Z,19.83
2017-12-04T15:12:09.516Z,19.79
2017-12-04T15:14:35.339Z,19.83
2017-12-04T15:17:01.115Z,19.83
2017-12-04T15:19:26.899Z,19.83
2017-12-04T15:21:52.670Z,19.90
2017-12-04T15:24:18.465Z,19.89
2017-12-04T15:26:44.271Z,19.84
2017-12-04T15:29:10.043Z,19.77
2017-12-04T15:31:35.833Z,19.83
2017-12-04T15:34:01.632Z,19.88
2017-12-04T15:36:27.415Z,19.88
2017-12-04T15:38:53.184Z,19.93
2017-12-04T15:41:18.998Z,19.76
2017-12-04T15:43:44.784Z,19.31
2017-12-04T15:46:10.588Z,19.38
2017-12-04T15:48:36.375Z,19.18
2017-12-04T15:51:02.161Z,19.20
2017-12-04T15:53:27.971Z,18.95
2017-12-04T15:55:53.792Z,18.74
2017-12-04T15:58:19.648Z,18.76
2017-12-04T16:00:45.475Z,18.58
2017-12-04T16:03:11.255Z,18.50
2017-12-04T16:05:37.031Z,18.58
2017-12-04T16:08:02.843Z,18.62
2017-12-04T16:10:28.620Z,18.51
2017-12-04T16:12:54.440Z,18.69
2017-12-04T16:15:20.219Z,18.86
2017-12-04T16:17:45.992Z,19.03
2017-12-04T16:20:11.772Z,19.20
2017-12-04T16:22:37.560Z,19.45
2017-12-04T16:25:03.340Z,19.50
2017-12-04T16:27:29.156Z,19.49
2017-12-04T16:29:54.975Z,19.48
2017-12-04T16:32:20.787Z,19.55
2017-12-04T16:34:46.571Z,19.58
2017-12-04T16:37:12.342Z,19.59
2017-12-04T16:39:38.111Z,19.69
2017-12-04T16:42:03.907Z,19.62
2017-12-04T16:44:29.719Z,19.69
2017-12-04T16:46:55.492Z,19.63
2017-12-04T16:49:21.261Z,19.68
2017-12-04T16:51:47.039Z,19.67
2017-12-04T16:54:12.812Z,19.75
2017-12-04T16:56:38.583Z,19.75
2017-12-04T16:59:04.360Z,19.73
2017-12-04T17:01:30.197Z,19.79
2017-12-04T17:03:55.981Z,19.76
2017-12-04T17:06:21.777Z,19.83
2017-12-04T17:08:47.551Z,19.74
2017-12-04T17:11:13.328Z,19.74
2017-12-04T17:13:39.095Z,19.50
2017-12-04T17:16:04.880Z,19.13
2017-12-04T17:18:30.652Z,18.98
2017-12-04T17:20:56.428Z,18.98
2017-12-04T17:23:22.208Z,18.71
2017-12-04T17:25:47.988Z,18.77
2017-12-04T17:28:13.840Z,18.86
2017-12-04T17:30:39.617Z,19.13
2017-12-04T17:33:05.409Z,19.30
2017-12-04T17:35:31.227Z,19.51
2017-12-04T17:37:57.047Z,19.51
2017-12-04T17:40:22.804Z,19.40
2017-12-04T17:42:48.585Z,19.41
2017-12-04T17:45:14.365Z,19.50
2017-12-04T17:47:40.171Z,19.57
2017-12-04T17:50:05.940Z,19.61
2017-12-04T17:52:31.730Z,19.58
2017-12-04T17:54:57.550Z,19.44
2017-12-04T17:57:23.324Z,19.34
2017-12-04T17:59:49.104Z,19.27
2017-12-04T18:02:14.899Z,19.34
2017-12-04T18:04:40.680Z,19.43
2017-12-04T18:07:06.480Z,19.48
2017-12-04T18:09:32.273Z,19.46
2017-12-04T18:11:58.060Z,19.38
2017-12-04T18:14:23.852Z,19.39
2017-12-04T18:16:49.667Z,19.50
2017-12-04T18:19:15.491Z,19.50
2017-12-04T18:21:41.292Z,19.51
2017-12-04T18:24:07.072Z,19.56
2017-12-04T18:26:32.864Z,19.49
2017-12-04T18:28:58.650Z,19.46
2017-12-04T18:31:24.437Z,19.43
2017-12-04T18:33:50.208Z,19.45
2017-12-04T18:36:15.984Z,19.55
2017-12-04T18:38:41.759Z,19.65
2017-12-04T18:41:07.643Z,19.58
2017-12-04T18:43:33.439Z,19.61
2017-12-04T18:45:59.241Z,19.64
2017-12-04T18:48:25.020Z,19.66
2017-12-04T18:50:50.797Z,19.64
2017-12-04T18:53:16.584Z,19.58
2017-12-04T18:55:42.399Z,19.46
2017-12-04T18:58:08.215Z,19.44
2017-12-04T19:00:34.010Z,19.58
2017-12-04T19:02:59.944Z,19.56
2017-12-04T19:05:25.745Z,19.56
2017-12-04T19:07:51.600Z,19.46
2017-12-04T19:10:17.465Z,19.40
2017-12-04T19:12:43.374Z,19.44
2017-12-04T19:15:09.159Z,19.48
2017-12-04T19:17:34.951Z,19.50
2017-12-04T19:20:02.203Z,19.56
2017-12-04T19:22:28.036Z,19.58
2017-12-04T19:24:53.843Z,19.57
2017-12-04T19:27:19.629Z,19.58
2017-12-04T19:29:45.425Z,19.50
2017-12-04T19:32:13.424Z,19.51
2017-12-04T19:34:39.212Z,19.59
2017-12-04T19:37:05.109Z,19.59
2017-12-04T19:39:30.912Z,19.61
2017-12-04T19:41:56.704Z,19.64
2017-12-04T19:44:22.536Z,19.51
2017-12-04T19:46:48.340Z,19.48
2017-12-04T19:49:14.184Z,19.52
2017-12-04T19:51:41.057Z,19.48
2017-12-04T19:54:06.884Z,19.52
2017-12-04T19:56:32.666Z,19.53
2017-12-04T19:58:58.548Z,19.47
2017-12-04T20:01:24.344Z,19.44
2017-12-04T20:03:50.128Z,19.55
2017-12-04T20:06:15.908Z,19.57
2017-12-04T20:08:41.684Z,19.59
2017-12-04T20:11:07.476Z,19.57
2017-12-04T20:13:33.323Z,19.58
2017-12-04T20:15:59.193Z,19.50
2017-12-04T20:18:25.118Z,19.48
2017-12-04T20:20:50.900Z,19.53
2017-12-04T20:23:16.720Z,19.50
2017-12-04T20:25:42.508Z,19.52
2017-12-04T20:28:08.373Z,19.40
2017-12-04T20:30:34.205Z,19.48
2017-12-04T20:33:01.068Z,19.54
2017-12-04T20:35:26.887Z,19.49
2017-12-04T20:37:52.702Z,19.63
2017-12-04T20:40:18.528Z,19.64
2017-12-04T20:42:45.354Z,19.64
2017-12-04T20:45:11.156Z,19.51
2017-12-04T20:47:37.008Z,19.55
2017-12-04T20:50:02.852Z,19.55
2017-12-04T20:52:28.653Z,19.65
2017-12-04T20:54:54.445Z,19.65
2017-12-04T20:57:20.232Z,19.70
2017-12-04T20:59:46.152Z,19.72
2017-12-04T21:02:11.939Z,19.59
2017-12-04T21:04:37.708Z,19.64
2017-12-04T21:07:03.488Z,19.70
2017-12-04T21:09:35.366Z,19.73
2017-12-04T21:12:01.236Z,19.63
2017-12-04T21:14:33.203Z,19.71
2017-12-04T21:17:05.172Z,19.55
2017-12-04T21:19:30.986Z,19.46
2017-12-04T21:21:56.772Z,19.52
2017-12-04T21:24:22.568Z,19.64
2017-12-04T21:26:48.453Z,19.59
2017-12-04T21:29:14.236Z,19.60
2017-12-04T21:31:40.076Z,19.76
2017-12-04T21:34:05.875Z,19.62
2017-12-04T21:36:31.648Z,19.52
2017-12-04T21:38:57.435Z,19.55
2017-12-04T21:41:23.252Z,19.59
2017-12-04T21:43:49.054Z,19.65
2017-12-04T21:46:15.035Z,19.64
2017-12-04T21:48:40.941Z,19.63
2017-12-04T21:51:06.796Z,19.51
2017-12-04T21:53:32.603Z,19.45
2017-12-04T21:55:58.391Z,19.54
2017-12-04T21:58:24.313Z,19.56
2017-12-04T22:00:50.215Z,19.52
2017-12-04T22:03:16.176Z,19.68
2017-12-04T22:05:41.979Z,19.63
2017-12-04T22:08:07.767Z,19.58
2017-12-04T22:10:33.617Z,19.49
2017-12-04T22:12:59.423Z,19.58
2017-12-04T22:15:25.354Z,19.58
2017-12-04T22:17:51.149Z,19.58
2017-12-04T22:20:16.957Z,19.65
2017-12-04T22:22:42.768Z,19.64
2017-12-04T22:25:08.563Z,19.71
2017-12-04T22:27:34.453Z,19.57
2017-12-04T22:30:00.271Z,19.62
2017-12-04T22:32:26.112Z,19.64
2017-12-04T22:34:51.903Z,19.65
2017-12-04T22:37:17.697Z,19.66
2017-12-04T22:39:44.601Z,19.69
2017-12-04T22:42:10.395Z,19.60
2017-12-04T22:44:36.192Z,19.62
2017-12-04T22:47:01.988Z,19.55
2017-12-04T22:49:27.839Z,19.68
2017-12-04T22:51:53.625Z,19.59
2017-12-04T22:54:19.444Z,19.60
2017-12-04T22:56:45.235Z,19.57
2017-12-04T22:59:11.083Z,19.56
2017-12-04T23:01:37.096Z,19.64
2017-12-04T23:04:02.888Z,19.58
2017-12-04T23:06:28.689Z,19.52
2017-12-04T23:08:54.480Z,19.44
2017-12-04T23:11:21.252Z,19.58
2017-12-04T23:13:47.059Z,19.56
2017-12-04T23:16:12.914Z,19.55
2017-12-04T23:18:38.788Z,19.56
2017-12-04T23:21:04.598Z,19.63
2017-12-04T23:23:30.423Z,19.60
2017-12-04T23:25:56.213Z,19.50
2017-12-04T23:28:22.056Z,19.61
2017-12-04T23:30:47.852Z,19.61
2017-12-04T23:33:13.659Z,19.59
2017-12-04T23:35:39.444Z,19.60
2017-12-04T23:38:05.527Z,19.58
2017-12-04T23:40:31.345Z,19.60
2017-12-04T23:42:57.131Z,19.64
2017-12-04T23:45:22.944Z,19.58
2017-12-04T23:47:48.780Z,19.52
2017-12-04T23:50:14.624Z,19.70
2017-12-04T23:52:40.535Z,19.51
2017-12-04T23:55:06.338Z,19.58
2017-12-04T23:57:32.115Z,19.64
2017-12-04T23:59:57.928Z,19.58
